Fort Wayne (FWA/KFWA)

Map

Destinations

Information

Location
Fort Wayne, IN
Local Time
01:41 / 1:41 am
GMT Time
05:41 / 5:41 am
Gates
No FAA reported delays
METAR KFWA 190454Z 19007KT 10SM FEW280 09/05 A3014 RMK AO2 SLP207 T00890050 402110039
TAF KFWA 182324Z 1900/1924 22008KT P6SM FEW250 FM191400 25010KT P6SM FEW250